Latest Weather Observations for Murrurundi Gap

IDN60801

Issued at 5:12 pm EDT Tuesday 26 March 2019 (issued every 10 minutes, with the page automatically refreshed every 10 minutes)

About weather observations | Map of weather stations | Latest weather observations for NSW | Other Formats
Station Details ID: 061392 Name: MURRURUNDI GAP AWS Lat: -31.74 Lon: 150.79 Height: 729.4 m
Data from the previous 72 hours. | See also: Recent months at Murrurundi Gap
Date/Time
EDT
Temp
°C
App
Temp
°C
Dew
Point
°C
Rel
Hum
%
Delta-T
°C
Wind Press
QNH
hPa
Press
MSL
hPa
Rain since
9am
mm
Dir  Spd
km/h
Gust
km/h
Spd
kts
Gust
kts
26/05:00pm 20.9 18.8 11.3 54 5.5 SE 13 17 7 9 1018.2 1015.0 0.0
26/04:30pm 21.3 20.3 12.2 56 5.3 SE 9 13 5 7 1018.2 1015.0 0.0
26/04:00pm 20.8 17.5 11.7 56 5.2 ESE 20 32 11 17 1018.1 1014.9 0.0
26/03:30pm 22.3 21.2 10.5 47 6.7 NW 7 15 4 8 1018.0 1014.8 0.0
26/03:00pm 22.2 20.2 11.6 51 6.1 NW 13 20 7 11 1018.0 1014.8 0.0
26/02:30pm 22.1 20.7 12.1 53 5.8 NW 11 19 6 10 1018.2 1015.0 0.0
26/02:00pm 21.3 20.5 13.0 59 4.9 W 9 15 5 8 1018.4 1015.2 0.0
26/01:30pm 20.6 19.7 12.6 60 4.7 NW 9 11 5 6 1018.3 1015.1 0.0
26/01:00pm 20.3 18.6 12.5 61 4.5 NW 13 17 7 9 1018.5 1015.3 0.0
26/12:30pm 19.8 18.3 11.8 60 4.6 NNW 11 15 6 8 1018.7 1015.4 0.0
26/12:00pm 19.3 17.9 12.1 63 4.1 NNW 11 15 6 8 1018.9 1015.7 0.0
26/11:30am 19.3 17.4 11.8 62 4.3 NW 13 17 7 9 1018.8 1015.5 0.0
26/11:00am 19.0 16.7 11.8 63 4.1 W 15 20 8 11 1019.0 1015.8 0.0
26/10:30am 18.4 17.2 13.9 75 2.7 NW 13 20 7 11 1018.8 1015.5 0.0
26/10:00am 18.2 17.2 14.7 80 2.1 NW 13 17 7 9 1018.5 1015.3 0.0
26/09:30am 18.0 16.8 15.1 83 1.7 NNW 15 20 8 11 1018.7 1015.4 0.0
26/09:20am 18.0 17.4 15.6 86 1.5 NNW 13 17 7 9 1018.4 1015.2 0.0
26/09:00am 17.5 17.1 17.2 98 0.2 NNW 15 19 8 10 1018.2 1015.0 7.4
26/08:56am 17.4 17.0 17.2 99 0.1 NNW 15 19 8 10 1018.2 1015.0 7.4
26/08:36am 17.2 17.1 17.0 99 0.1 NNW 13 15 7 8 1018.3 1015.1 7.4
26/08:33am 17.3 17.3 17.1 99 0.1 NNW 13 15 7 8 1018.2 1015.0 7.4
26/08:30am 17.3 17.3 17.1 99 0.1 NNW 13 15 7 8 1018.1 1014.9 7.4
26/08:00am 17.2 17.5 17.0 99 0.1 NNW 11 13 6 7 1017.8 1014.6 7.4
26/07:35am 17.1 17.0 16.9 99 0.1 NNW 13 17 7 9 1017.6 1014.3 7.4
26/07:30am 17.1 16.6 16.8 98 0.2 NNW 15 20 8 11 1017.5 1014.2 7.4
26/07:00am 17.4 16.0 16.6 95 0.5 NW 19 20 10 11 1017.3 1014.0 7.4
26/06:30am 17.6 16.6 16.5 93 0.7 NW 17 20 9 11 1017.0 1013.8 7.4
26/06:00am 17.6 16.6 16.5 93 0.7 NW 17 20 9 11 1016.8 1013.6 7.4
26/05:30am 17.7 16.1 16.4 92 0.8 NW 20 24 11 13 1016.6 1013.4 7.4
26/05:00am 18.2 15.7 16.2 88 1.2 NW 24 32 13 17 1016.4 1013.1 7.4
26/04:33am 18.7 15.7 15.9 84 1.7 NW 26 32 14 17 1016.2 1012.9 7.4
26/04:30am 18.6 16.0 15.8 84 1.7 NW 24 30 13 16 1016.2 1012.9 7.4
26/04:00am 18.8 15.8 15.9 83 1.8 NW 26 33 14 18 1016.1 1012.8 7.4
26/03:30am 19.0 14.9 15.9 82 1.9 NW 32 39 17 21 1016.1 1012.8 7.4
26/03:00am 19.0 14.6 15.7 81 2.0 NW 33 41 18 22 1016.0 1012.7 7.4
26/02:30am 19.1 14.9 15.6 80 2.1 NW 32 43 17 23 1016.0 1012.7 7.4
26/02:00am 19.1 14.4 15.8 81 2.0 NW 35 39 19 21 1016.3 1013.0 7.4
26/01:30am 19.4 14.6 15.7 79 2.3 NW 35 43 19 23 1016.3 1013.0 7.4
26/01:00am 18.9 15.1 15.8 82 1.9 NW 30 35 16 19 1016.3 1013.0 7.4
26/12:30am 19.3 14.5 15.6 79 2.3 NW 35 41 19 22 1016.2 1012.9 7.4
26/12:00am 19.5 14.8 15.8 79 2.3 NW 35 43 19 23 1016.3 1013.0 7.4
 
Date/Time
EDT
Temp
°C
App
Temp
°C
Dew
Point
°C
Rel
Hum
%
Delta-T
°C
Wind Press
QNH
hPa
Press
MSL
hPa
Rain since
9am
mm
Dir  Spd
km/h
Gust
km/h
Spd
kts
Gust
kts
25/11:30pm 19.8 15.0 15.7 77 2.5 NW 35 44 19 24 1016.1 1012.8 7.4
25/11:00pm 20.0 14.4 15.6 76 2.7 NW 39 48 21 26 1016.1 1012.8 7.4
25/10:30pm 20.0 14.5 15.8 77 2.6 NW 39 50 21 27 1016.0 1012.7 7.4
25/10:00pm 20.3 14.7 15.5 74 2.9 NW 39 48 21 26 1015.9 1012.6 7.4
25/09:30pm 20.1 14.3 15.9 77 2.6 NW 41 48 22 26 1015.8 1012.5 7.4
25/09:00pm 20.3 14.0 16.1 77 2.6 NW 44 52 24 28 1015.4 1012.2 7.4
25/08:30pm 19.9 14.8 16.7 82 2.0 NW 39 48 21 26 1015.3 1012.1 7.4
25/08:00pm 19.6 14.7 17.4 87 1.4 NW 39 46 21 25 1015.3 1012.1 7.4
25/07:30pm 19.9 13.8 17.5 86 1.5 NW 46 54 25 29 1015.0 1011.7 7.4
25/07:00pm 19.9 13.4 17.5 86 1.5 NW 48 59 26 32 1015.0 1011.7 7.4
25/06:30pm 20.0 14.5 17.6 86 1.5 NW 43 50 23 27 1014.7 1011.4 7.4
25/06:00pm 20.1 15.4 17.7 86 1.5 NW 39 54 21 29 1015.1 1011.8 7.4
25/05:30pm 20.2 14.6 17.4 84 1.8 NW 43 56 23 30 1014.6 1011.3 7.4
25/05:00pm 20.3 15.4 17.3 83 1.9 NW 39 52 21 28 1014.8 1011.5 7.4
25/04:39pm 20.1 15.7 17.5 85 1.6 NW 37 46 20 25 1014.7 1011.4 7.4
25/04:30pm 20.0 15.9 17.4 85 1.6 NW 35 46 19 25 1014.8 1011.5 7.4
25/04:00pm 19.6 16.3 18.3 92 0.8 NNW 33 41 18 22 1014.8 1011.5 7.4
25/03:30pm 19.1 17.1 19.1 100 0.0 NNW 28 37 15 20 1015.0 1011.7 7.4
25/03:01pm 18.6 16.7 18.6 100 0.0 NW 26 33 14 18 1015.5 1012.3 7.4
25/03:00pm 18.6 16.4 18.6 100 0.0 NW 28 41 15 22 1015.5 1012.3 7.4
25/02:30pm 18.3 14.2 18.3 100 0.0 NW 37 46 20 25 1015.6 1012.4 7.4
25/02:00pm 18.1 14.7 18.1 100 0.0 NW 33 44 18 24 1015.9 1012.6 7.4
25/01:30pm 18.0 12.6 18.0 100 0.0 NNW 43 54 23 29 1016.2 1012.9 7.0
25/01:00pm 18.0 14.5 18.0 100 0.0 NNW 33 41 18 22 1016.4 1013.1 5.2
25/12:57pm 18.0 14.5 18.0 100 0.0 NNW 33 41 18 22 1016.4 1013.1 5.2
25/12:30pm 17.8 14.2 17.6 99 0.1 NNW 33 41 18 22 1016.4 1013.1 3.8
25/12:24pm 17.9 14.2 17.4 97 0.3 NNW 33 44 18 24 1016.4 1013.1 3.0
25/12:00pm 18.4 14.8 17.1 92 0.8 NNW 32 43 17 23 1016.5 1013.3 2.0
25/11:30am 19.1 16.5 16.9 87 1.4 NNW 26 33 14 18 1016.6 1013.4 1.6
25/11:17am 19.4 15.4 16.1 81 2.0 NW 32 43 17 23 1016.7 1013.5 1.4
25/11:00am 19.6 15.9 17.0 85 1.6 NW 32 39 17 21 1016.6 1013.4 1.0
25/10:30am 21.4 17.7 16.1 72 3.3 NW 30 39 16 21 1016.5 1013.3 0.0
25/10:00am 22.2 20.0 16.0 68 3.9 NW 22 26 12 14 1016.3 1013.0 0.0
25/09:30am 22.2 20.9 16.7 71 3.5 NW 19 24 10 13 1016.2 1012.9 0.0
25/09:00am 22.1 21.1 16.6 71 3.5 NW 17 22 9 12 1015.6 1012.4 0.4
25/08:30am 21.7 20.1 16.4 72 3.3 WNW 20 22 11 12 1015.0 1011.7 0.4
25/08:00am 21.5 19.9 16.5 73 3.1 NNW 20 24 11 13 1014.5 1011.2 0.4
25/07:30am 21.3 19.4 16.7 75 2.9 NW 22 30 12 16 1014.6 1011.3 0.4
25/07:00am 21.3 19.7 16.5 74 3.0 NW 20 24 11 13 1013.8 1010.5 0.4
25/06:30am 21.5 18.8 16.5 73 3.1 NW 26 32 14 17 1013.6 1010.3 0.4
25/06:00am 22.5 16.9 15.6 65 4.3 WNW 39 48 21 26 1012.7 1009.5 0.4
25/05:30am 23.6 18.9 14.9 58 5.3 NW 33 46 18 25 1012.2 1008.9 0.4
25/05:00am 22.4 19.3 15.7 66 4.2 NW 26 32 14 17 1012.5 1009.2 0.4
25/04:30am 23.4 21.4 15.5 61 4.9 NW 20 28 11 15 1012.3 1009.0 0.4
25/04:00am 23.0 21.1 15.8 64 4.5 NNW 20 28 11 15 1012.6 1009.3 0.4
25/03:30am 22.8 21.0 15.9 65 4.3 N 20 28 11 15 1013.2 1009.9 0.4
25/03:00am 22.7 20.9 16.0 66 4.2 N 20 32 11 17 1013.7 1010.4 0.4
25/02:30am 22.9 21.2 15.7 64 4.5 NW 19 30 10 16 1014.4 1011.1 0.4
25/02:00am 23.3 21.5 15.6 62 4.8 NNW 19 24 10 13 1014.6 1011.3 0.4
25/01:30am 23.8 23.1 15.3 59 5.3 N 13 20 7 11 1014.8 1011.5 0.4
25/01:00am 23.3 25.1 16.4 65 4.3 SSE 2 7 1 4 1014.6 1011.3 0.4
25/12:30am 22.8 23.2 16.4 67 4.0 ESE 9 11 5 6 1014.7 1011.4 0.4
25/12:00am 22.7 22.9 16.7 69 3.8 ESE 11 13 6 7 1014.9 1011.6 0.4
 
Date/Time
EDT
Temp
°C
App
Temp
°C
Dew
Point
°C
Rel
Hum
%
Delta-T
°C
Wind Press
QNH
hPa
Press
MSL
hPa
Rain since
9am
mm
Dir  Spd
km/h
Gust
km/h
Spd
kts
Gust
kts
24/11:30pm 22.5 22.7 16.8 70 3.6 ESE 11 13 6 7 1015.0 1011.7 0.4
24/11:00pm 22.7 22.6 16.9 70 3.7 ESE 13 13 7 7 1015.1 1011.8 0.4
24/10:30pm 22.9 23.5 16.9 69 3.8 ESE 9 9 5 5 1015.2 1012.0 0.4
24/10:00pm 23.8 25.5 16.1 62 4.8 WNW 2 7 1 4 1015.6 1012.4 0.4
24/09:30pm 24.5 25.6 17.0 63 4.8 SW 7 11 4 6 1015.9 1012.6 0.2
24/09:00pm 24.2 25.1 16.7 63 4.7 SE 7 11 4 6 1015.4 1012.2 0.0
24/08:30pm 25.7 26.6 16.0 55 6.1 ESE 6 9 3 5 1015.1 1011.8 0.0
24/08:00pm 26.4 27.6 15.8 52 6.7 ESE 4 11 2 6 1014.7 1011.4 0.0
24/07:30pm 25.6 25.5 15.9 55 6.1 SSE 11 15 6 8 1014.7 1011.4 0.0
24/07:00pm 27.1 25.3 14.5 46 7.8 SSW 17 26 9 14 1013.7 1010.4 0.0
24/06:30pm 26.9 25.9 14.6 46 7.6 NW 13 22 7 12 1012.9 1009.6 0.0
24/06:00pm 27.1 24.0 14.5 46 7.8 NNW 24 33 13 18 1012.6 1009.3 0.0
24/05:30pm 27.4 24.0 14.8 46 7.8 N 26 37 14 20 1012.7 1009.5 0.0
24/05:00pm 28.2 25.4 14.4 42 8.6 NNW 22 32 12 17 1012.7 1009.5 0.0
24/04:30pm 28.3 24.4 14.5 43 8.6 NW 28 39 15 21 1013.1 1009.8 0.0
24/04:18pm 28.5 23.4 13.2 39 9.3 NNW 32 46 17 25 1012.9 1009.6 0.0
24/04:00pm 30.4 27.8 13.7 36 10.3 NW 20 28 11 15 1013.1 1009.8 0.0
24/03:30pm 30.9 27.9 13.7 35 10.7 NW 22 30 12 16 1013.3 1010.0 0.0
24/03:00pm 30.5 28.5 15.4 40 9.6 NW 20 28 11 15 1013.8 1010.5 0.0
24/02:30pm 29.8 26.9 16.2 43 8.7 WNW 26 33 14 18 1014.3 1011.0 0.0
24/02:00pm 29.2 26.6 16.0 44 8.4 NW 24 32 13 17 1014.8 1011.5 0.0
24/01:30pm 28.3 24.8 16.6 49 7.5 NW 30 39 16 21 1015.3 1012.1 0.0
24/01:00pm 27.7 23.2 16.3 49 7.3 NW 35 41 19 22 1015.6 1012.4 0.0
24/12:30pm 27.5 22.1 16.1 49 7.2 NW 39 52 21 28 1015.5 1012.3 0.0
24/12:00pm 27.3 21.5 16.0 50 7.2 NW 41 50 22 27 1015.4 1012.2 0.0
24/11:30am 26.9 22.2 15.9 51 6.9 NW 35 46 19 25 1016.0 1012.7 0.0
24/11:00am 26.4 21.7 15.8 52 6.7 NW 35 48 19 26 1016.1 1012.8 0.0
24/10:30am 25.5 21.9 17.2 60 5.3 NW 32 37 17 20 1016.3 1013.0 0.0
24/10:00am 24.9 20.5 15.2 54 6.0 NW 32 41 17 22 1016.2 1012.9 0.0
24/09:30am 24.4 20.5 15.6 58 5.5 NW 30 35 16 19 1016.0 1012.7 0.0
24/09:00am 23.6 20.1 15.6 61 5.0 NW 28 35 15 19 1016.0 1012.7 4.2
24/08:30am 22.5 19.9 15.8 66 4.2 NW 24 33 13 18 1016.0 1012.7 4.2
24/08:00am 21.5 18.8 15.6 69 3.6 NW 24 30 13 16 1016.1 1012.8 4.2
24/07:30am 21.3 18.5 15.4 69 3.6 NW 24 30 13 16 1015.8 1012.5 4.2
24/07:00am 21.1 18.3 15.4 70 3.5 NW 24 28 13 15 1015.9 1012.6 4.2
24/06:30am 21.1 18.3 15.4 70 3.5 NW 24 30 13 16 1015.5 1012.3 4.2
24/06:00am 21.7 18.1 15.3 67 3.9 NNW 28 37 15 20 1015.2 1012.0 4.2
24/05:30am 21.4 19.0 15.3 68 3.7 NNW 22 32 12 17 1015.3 1012.1 4.2
24/05:00am 22.0 19.1 15.1 65 4.2 NW 24 30 13 16 1015.3 1012.1 4.2
24/04:30am 22.1 18.4 15.0 64 4.3 NNW 28 35 15 19 1015.1 1011.8 4.2
24/04:00am 21.9 19.1 15.3 66 4.1 NNW 24 33 13 18 1015.3 1012.1 4.2
24/03:30am 21.9 19.5 15.3 66 4.1 NNW 22 32 12 17 1015.3 1012.1 4.2
24/03:00am 21.6 19.7 15.7 69 3.6 NNW 20 30 11 16 1015.4 1012.2 4.2
24/02:30am 21.6 20.3 15.9 70 3.5 NNW 17 22 9 12 1016.0 1012.7 4.2
24/02:00am 20.9 20.7 16.7 77 2.6 NW 13 19 7 10 1016.3 1013.0 4.2
24/01:30am 19.9 19.7 16.7 82 2.0 ESE 13 17 7 9 1016.3 1013.0 3.8
24/01:00am 20.8 20.0 16.0 74 3.0 ESE 15 19 8 10 1016.1 1012.8 3.8
24/12:30am 21.8 21.9 15.6 68 3.8 ENE 9 13 5 7 1016.4 1013.1 3.8
24/12:00am 20.4 18.7 15.8 75 2.8 SE 19 24 10 13 1016.7 1013.5 3.6
 
Date/Time
EDT
Temp
°C
App
Temp
°C
Dew
Point
°C
Rel
Hum
%
Delta-T
°C
Wind Press
QNH
hPa
Press
MSL
hPa
Rain since
9am
mm
Dir  Spd
km/h
Gust
km/h
Spd
kts
Gust
kts
23/11:30pm 22.1 21.0 15.2 65 4.2 SE 15 17 8 9 1015.3 1012.1 3.6
23/11:00pm 22.0 22.0 15.1 65 4.2 ESE 9 15 5 8 1015.6 1012.4 3.6
23/10:30pm 22.3 22.3 15.2 64 4.4 W 9 17 5 9 1015.1 1011.8 3.6
23/10:00pm 20.0 18.9 16.4 80 2.2 WNW 17 24 9 13 1015.2 1012.0 3.6
23/09:44pm 19.9 18.4 16.7 82 2.0 NW 20 35 11 19 1015.4 1012.2 3.6
23/09:36pm 20.1 16.0 17.3 84 1.8 NNW 35 63 19 34 1015.2 1012.0 3.6
23/09:31pm 17.7 9.9 16.2 91 0.9 NW 52 100 28 54 1015.5 1012.3 3.6
23/09:30pm 17.7 8.9 16.0 90 1.0 NW 57 100 31 54 1015.5 1012.3 3.6
23/09:25pm 17.4 9.2 15.2 87 1.3 NW 52 100 28 54 1015.8 1012.5 3.4
23/09:23pm 17.5 10.3 14.8 84 1.6 NNW 46 100 25 54 1014.7 1011.4 2.2
23/09:21pm 21.4 15.9 14.8 66 4.0 NNW 37 98 20 53 1013.2 1009.9 0.2
23/09:19pm 25.1 21.2 13.3 48 7.1 N 26 78 14 42 1014.4 1011.1 0.2
23/09:00pm 26.1 23.2 12.2 42 8.3 N 19 28 10 15 1014.5 1011.2 0.2
23/08:30pm 25.6 22.2 13.8 48 7.2 NNE 24 33 13 18 1014.4 1011.1 0.2
23/08:00pm 26.4 22.8 14.2 47 7.5 NW 26 35 14 19 1014.0 1010.8 0.2
23/07:55pm 26.5 23.9 14.9 49 7.2 NW 22 33 12 18 1014.0 1010.8 0.2
23/07:30pm 27.4 27.4 15.1 47 7.7 NW 9 13 5 7 1014.3 1011.0 0.2
23/07:00pm 27.7 26.9 15.0 45 7.9 NW 13 19 7 10 1014.0 1010.8 0.2
23/06:30pm 28.7 26.5 14.5 42 8.8 NW 19 26 10 14 1013.9 1010.6 0.2
23/06:00pm 29.1 26.4 14.5 41 9.1 NW 22 30 12 16 1013.7 1010.4 0.2
23/05:30pm 28.5 24.6 14.3 41 8.8 NW 28 35 15 19 1013.7 1010.4 0.2

Other formats

Comma delimited format used in spreadsheet applications
http://www.bom.gov.au/fwo/IDN60801/IDN60801.95747.axf

JavaScript Object Notation format (JSON) in row-major order
http://www.bom.gov.au/fwo/IDN60801/IDN60801.95747.json

Data quality

Most of these data are generated automatically and are frequently updated. Quality checks on data are not normally performed. It is possible for incorrect values to appear. Refer to information at About Latest Weather Observations and please check the disclaimer before using these data.